Time;durP1;ratioP1;P1;durP2;ratioP2;P2;SDS_P1;SDS_P2;PMS_P1;PMS_P2;Temp;Humidity;BMP_temperature;BMP_pressure;BME280_temperature;BME280_humidity;BME280_pressure;Samples;Min_cycle;Max_cycle;Signal;HPM_P1;HPM_P2
2020/12/03 00:00:42;;;;;;;21.35;11.15;;;2.00;99.90;;;;;;5077695;28;20060;-65
2020/12/03 00:03:21;;;;;;;21.50;11.27;;;2.00;99.90;;;;;;5077663;28;20025;-67
2020/12/03 00:06:28;;;;;;;25.77;12.07;;;2.00;99.90;;;;;;5077899;28;20068;-68
2020/12/03 00:09:00;;;;;;;26.40;11.95;;;2.00;99.90;;;;;;5073863;28;20041;-68
2020/12/03 00:11:32;;;;;;;26.77;11.57;;;2.00;99.90;;;;;;5078311;28;20308;-68
2020/12/03 00:13:59;;;;;;;25.70;11.57;;;2.00;99.90;;;;;;5077654;28;20028;-68
2020/12/03 00:16:31;;;;;;;21.60;10.63;;;2.00;99.90;;;;;;5077869;28;20367;-68
2020/12/03 00:19:00;;;;;;;24.88;11.05;;;2.00;99.90;;;;;;5077888;28;20017;-68
2020/12/03 00:22:01;;;;;;;22.17;10.48;;;2.00;99.90;;;;;;5077247;28;20055;-68
2020/12/03 00:24:31;;;;;;;26.75;12.10;;;2.00;99.90;;;;;;5023602;28;20036;-68
2020/12/03 00:27:13;;;;;;;22.40;10.70;;;2.00;99.90;;;;;;5077307;28;20025;-68
2020/12/03 00:29:41;;;;;;;22.45;11.15;;;2.00;99.90;;;;;;5077138;28;20020;-68
2020/12/03 00:32:10;;;;;;;25.65;11.70;;;2.00;99.90;;;;;;5077670;28;20305;-68
2020/12/03 00:34:37;;;;;;;25.48;11.68;;;2.00;99.90;;;;;;5076964;28;20021;-68
2020/12/03 00:37:04;;;;;;;25.05;10.80;;;2.00;99.90;;;;;;5076914;28;20020;-68
2020/12/03 00:39:32;;;;;;;22.65;11.57;;;2.00;99.90;;;;;;5060031;28;20401;-68
2020/12/03 00:42:00;;;;;;;22.10;10.98;;;1.90;99.90;;;;;;5076954;28;20032;-68
2020/12/03 00:44:27;;;;;;;29.70;12.23;;;1.90;99.90;;;;;;5077149;28;20108;-68
2020/12/03 00:46:55;;;;;;;24.15;11.32;;;1.90;99.90;;;;;;5077038;28;20067;-68
2020/12/03 00:49:23;;;;;;;24.33;10.65;;;1.90;99.90;;;;;;5076747;28;20025;-68
2020/12/03 00:51:51;;;;;;;24.95;10.98;;;1.90;99.90;;;;;;5059184;28;20107;-68
2020/12/03 00:54:19;;;;;;;26.45;11.65;;;1.90;99.90;;;;;;5077320;28;20017;-68
2020/12/03 00:56:50;;;;;;;22.30;10.90;;;1.90;99.90;;;;;;5076818;28;20356;-68
2020/12/03 00:59:18;;;;;;;24.42;11.05;;;1.80;99.90;;;;;;5077256;28;20028;-68
2020/12/03 01:01:45;;;;;;;24.67;11.25;;;1.80;99.90;;;;;;5059090;28;20320;-68
2020/12/03 01:04:13;;;;;;;24.92;11.93;;;1.80;99.90;;;;;;5077210;28;20024;-68
2020/12/03 01:06:44;;;;;;;24.95;11.77;;;1.80;99.90;;;;;;5076419;28;20052;-68
2020/12/03 01:09:13;;;;;;;28.80;11.80;;;1.80;99.90;;;;;;5076350;28;20031;-68
2020/12/03 01:11:41;;;;;;;26.02;12.77;;;1.80;99.90;;;;;;5076672;28;20103;-68
2020/12/03 01:14:08;;;;;;;25.95;11.68;;;1.80;99.90;;;;;;5077078;28;20073;-68
2020/12/03 01:16:36;;;;;;;23.40;11.43;;;1.80;99.90;;;;;;5076564;28;20025;-68
2020/12/03 01:19:04;;;;;;;23.95;11.52;;;1.80;99.90;;;;;;5076543;28;20416;-65
2020/12/03 01:21:32;;;;;;;25.58;10.98;;;1.80;99.90;;;;;;5076568;28;20024;-65
2020/12/03 01:24:00;;;;;;;24.52;12.43;;;1.80;99.90;;;;;;5077027;28;20028;-65
2020/12/03 01:26:28;;;;;;;25.02;11.40;;;1.80;99.90;;;;;;5076910;28;20108;-65
2020/12/03 01:28:56;;;;;;;23.50;11.43;;;1.90;99.90;;;;;;5076423;28;20016;-67
2020/12/03 01:31:25;;;;;;;25.67;11.88;;;1.90;99.90;;;;;;5076984;28;20496;-68
2020/12/03 01:33:52;;;;;;;23.98;10.57;;;1.90;99.90;;;;;;5076374;28;20405;-68
2020/12/03 01:36:21;;;;;;;26.45;11.27;;;1.90;99.90;;;;;;5080678;28;20099;-68
2020/12/03 01:38:48;;;;;;;23.98;11.45;;;1.90;99.90;;;;;;5080490;28;20320;-68
2020/12/03 01:41:16;;;;;;;22.70;10.82;;;2.00;99.90;;;;;;5080935;28;20185;-68
2020/12/03 01:43:45;;;;;;;23.90;11.63;;;2.00;99.90;;;;;;5080362;28;20298;-68
2020/12/03 01:46:13;;;;;;;23.13;11.35;;;2.00;99.90;;;;;;5080399;28;20146;-68
2020/12/03 01:49:14;;;;;;;22.70;10.80;;;2.00;99.90;;;;;;5080811;28;20027;-68
2020/12/03 01:51:50;;;;;;;24.00;12.18;;;2.00;99.90;;;;;;5080678;28;20099;-68
2020/12/03 01:54:22;;;;;;;20.15;10.38;;;2.00;99.90;;;;;;5080742;28;20423;-68
2020/12/03 01:57:05;;;;;;;23.00;11.57;;;2.00;99.90;;;;;;5080715;28;20044;-68
2020/12/03 02:00:00;;;;;;;22.30;10.73;;;2.00;99.90;;;;;;5080650;28;20025;-68
2020/12/03 02:02:27;;;;;;;21.35;11.13;;;2.00;99.90;;;;;;5080683;28;20025;-68
2020/12/03 02:05:15;;;;;;;22.55;10.55;;;2.00;99.90;;;;;;5080478;28;20021;-68
2020/12/03 02:07:44;;;;;;;21.00;10.00;;;2.00;99.90;;;;;;5080117;28;20036;-65
2020/12/03 02:10:12;;;;;;;21.83;11.02;;;2.10;99.90;;;;;;5080095;28;20301;-65
2020/12/03 02:12:40;;;;;;;23.85;11.10;;;2.00;99.90;;;;;;5062166;28;20021;-65
2020/12/03 02:15:09;;;;;;;24.27;11.60;;;2.10;99.90;;;;;;5080243;28;20028;-65
2020/12/03 02:17:39;;;;;;;23.25;10.70;;;2.10;99.90;;;;;;5062014;28;20078;-65
2020/12/03 02:20:14;;;;;;;19.23;9.80;;;2.00;99.90;;;;;;5061792;28;20090;-65
2020/12/03 02:22:42;;;;;;;20.13;10.00;;;2.00;99.90;;;;;;5079839;28;20425;-67
2020/12/03 02:25:10;;;;;;;22.38;9.70;;;2.00;99.90;;;;;;5080090;28;20154;-68
2020/12/03 02:27:39;;;;;;;22.67;10.75;;;2.00;99.90;;;;;;5080015;28;20029;-68
2020/12/03 02:30:15;;;;;;;26.42;12.20;;;2.00;99.90;;;;;;5079443;28;20100;-65
2020/12/03 02:32:43;;;;;;;17.13;7.95;;;2.00;99.90;;;;;;5079665;28;20020;-67
2020/12/03 02:35:14;;;;;;;25.00;11.05;;;2.00;99.90;;;;;;5079847;28;20025;-68
2020/12/03 02:37:41;;;;;;;24.95;11.88;;;2.00;99.90;;;;;;5079409;28;20024;-68
2020/12/03 02:40:10;;;;;;;23.70;11.20;;;2.00;99.90;;;;;;5079138;28;20103;-65
2020/12/03 02:42:38;;;;;;;22.38;11.02;;;2.00;99.90;;;;;;5061662;28;20031;-67
2020/12/03 02:45:06;;;;;;;20.48;10.70;;;2.00;99.90;;;;;;5061352;28;20025;-68
2020/12/03 02:47:35;;;;;;;23.38;10.85;;;2.00;99.90;;;;;;5078173;28;20496;-68
2020/12/03 02:50:06;;;;;;;19.77;10.90;;;2.00;99.90;;;;;;5078946;28;20025;-68
2020/12/03 02:52:34;;;;;;;22.88;11.63;;;2.10;99.90;;;;;;5079274;28;20096;-68
2020/12/03 02:55:02;;;;;;;23.00;10.38;;;2.00;99.90;;;;;;5080101;28;20309;-68
2020/12/03 02:57:30;;;;;;;20.55;10.70;;;2.00;99.90;;;;;;5078971;28;20020;-68
2020/12/03 02:59:58;;;;;;;23.70;11.00;;;2.00;99.90;;;;;;5079505;28;20107;-68
2020/12/03 03:02:25;;;;;;;23.05;10.85;;;2.00;99.90;;;;;;5061088;28;20047;-68
2020/12/03 03:04:53;;;;;;;21.52;9.95;;;2.00;99.90;;;;;;5079455;28;20048;-68
2020/12/03 03:07:20;;;;;;;22.27;10.27;;;2.00;99.90;;;;;;5078614;28;20052;-68
2020/12/03 03:09:47;;;;;;;21.30;10.93;;;2.00;99.90;;;;;;5078758;28;20031;-68
2020/12/03 03:12:16;;;;;;;19.65;9.18;;;2.00;99.90;;;;;;5079513;28;20021;-68
2020/12/03 03:14:43;;;;;;;20.10;9.20;;;2.00;99.90;;;;;;5078673;28;20020;-68
2020/12/03 03:17:11;;;;;;;24.52;12.23;;;2.00;99.90;;;;;;5079341;28;20021;-68
2020/12/03 03:19:38;;;;;;;21.10;10.40;;;2.00;99.90;;;;;;5079140;28;20024;-68
2020/12/03 03:22:07;;;;;;;20.73;10.30;;;2.00;99.90;;;;;;5078587;28;20024;-68
2020/12/03 03:24:35;;;;;;;23.08;10.77;;;2.00;99.90;;;;;;5078476;28;20024;-68
2020/12/03 03:27:03;;;;;;;19.90;9.75;;;2.00;99.90;;;;;;5078551;28;20510;-68
2020/12/03 03:29:31;;;;;;;21.98;9.68;;;2.00;99.90;;;;;;5078924;28;20027;-68
2020/12/03 03:31:59;;;;;;;21.60;10.63;;;2.00;99.90;;;;;;5078603;28;20016;-68
2020/12/03 03:34:27;;;;;;;21.85;10.68;;;2.00;99.90;;;;;;5043877;28;20024;-68
2020/12/03 03:36:55;;;;;;;20.77;10.68;;;2.00;99.90;;;;;;5078626;28;20040;-68
2020/12/03 03:39:24;;;;;;;25.73;10.35;;;2.00;99.90;;;;;;5078179;28;20077;-65
2020/12/03 03:41:56;;;;;;;25.00;11.13;;;2.00;99.90;;;;;;5078186;28;20074;-65
2020/12/03 03:44:24;;;;;;;27.35;11.23;;;2.00;99.90;;;;;;5077895;28;20367;-65
2020/12/03 03:46:51;;;;;;;22.25;10.82;;;2.00;99.90;;;;;;5078407;28;20024;-65
2020/12/03 03:49:19;;;;;;;23.00;12.10;;;2.00;99.90;;;;;;5077895;28;20016;-65
2020/12/03 03:51:46;;;;;;;22.13;10.35;;;2.00;99.90;;;;;;5077893;28;20494;-65
2020/12/03 03:54:14;;;;;;;22.50;11.40;;;2.00;99.90;;;;;;5078179;28;20412;-65
2020/12/03 03:56:42;;;;;;;21.83;11.40;;;2.00;99.90;;;;;;5078254;28;20055;-65
2020/12/03 03:59:10;;;;;;;22.92;11.50;;;2.00;99.90;;;;;;5077472;28;20028;-65
2020/12/03 04:01:37;;;;;;;20.42;10.20;;;2.00;99.90;;;;;;5077730;28;20324;-67
2020/12/03 04:04:05;;;;;;;19.50;10.18;;;2.00;99.90;;;;;;5077613;28;20027;-68
2020/12/03 04:06:34;;;;;;;23.25;11.60;;;2.00;99.90;;;;;;5077582;28;20186;-68
2020/12/03 04:09:02;;;;;;;22.20;10.75;;;2.10;99.90;;;;;;5077585;28;20436;-68
2020/12/03 04:11:29;;;;;;;22.38;10.77;;;2.10;99.90;;;;;;5077496;28;20031;-68
2020/12/03 04:13:57;;;;;;;23.77;12.02;;;2.10;99.90;;;;;;5077514;28;20052;-68
2020/12/03 04:16:24;;;;;;;23.42;12.05;;;2.10;99.90;;;;;;5077423;28;20016;-68
2020/12/03 04:18:52;;;;;;;26.70;12.00;;;2.00;99.90;;;;;;5077374;28;20021;-68
2020/12/03 04:21:20;;;;;;;23.58;11.13;;;2.00;99.90;;;;;;5059456;28;20027;-68
2020/12/03 04:23:48;;;;;;;23.75;12.05;;;2.00;99.90;;;;;;5060040;28;20031;-68
2020/12/03 04:26:16;;;;;;;26.42;11.55;;;2.00;99.90;;;;;;5077399;28;20047;-67
2020/12/03 04:28:43;;;;;;;25.23;11.65;;;2.00;99.90;;;;;;5077495;28;20028;-68
2020/12/03 04:31:12;;;;;;;26.05;12.95;;;2.00;99.90;;;;;;5077606;28;20032;-68
2020/12/03 04:33:40;;;;;;;22.80;11.60;;;1.90;99.90;;;;;;5077579;28;20016;-68
2020/12/03 04:36:07;;;;;;;23.05;11.13;;;1.80;99.90;;;;;;5077569;28;20046;-68
2020/12/03 04:38:35;;;;;;;22.63;11.70;;;1.80;99.90;;;;;;5077013;28;20031;-68
2020/12/03 04:41:03;;;;;;;28.25;11.70;;;1.70;99.90;;;;;;5077120;28;20328;-68
2020/12/03 04:43:47;;;;;;;27.23;12.65;;;1.70;99.90;;;;;;5077505;28;20051;-68
2020/12/03 04:46:36;;;;;;;26.48;12.13;;;1.70;99.90;;;;;;5077371;28;20429;-68
2020/12/03 04:49:24;;;;;;;28.00;11.95;;;1.70;99.90;;;;;;5077128;28;20021;-68
2020/12/03 04:52:21;;;;;;;27.27;12.82;;;1.70;99.90;;;;;;5076948;28;20024;-68
2020/12/03 04:55:25;;;;;;;24.77;11.25;;;1.70;99.90;;;;;;5077651;28;20017;-68
2020/12/03 04:58:10;;;;;;;27.08;12.05;;;1.70;99.90;;;;;;5077074;28;20099;-68
2020/12/03 05:00:52;;;;;;;28.02;13.40;;;1.70;99.90;;;;;;5077255;28;20028;-67
2020/12/03 05:03:29;;;;;;;29.25;12.73;;;1.70;99.90;;;;;;5042263;28;20111;-68
2020/12/03 05:06:31;;;;;;;24.27;11.75;;;1.70;99.90;;;;;;5077117;28;20066;-68
2020/12/03 05:09:15;;;;;;;25.95;11.50;;;1.60;99.90;;;;;;5076215;28;20025;-68
2020/12/03 05:11:57;;;;;;;26.00;11.80;;;1.70;99.90;;;;;;5077319;28;20405;-68
2020/12/03 05:14:43;;;;;;;31.98;12.95;;;1.70;99.90;;;;;;5077090;28;20324;-68
2020/12/03 05:17:53;;;;;;;26.10;13.03;;;1.60;99.90;;;;;;5076772;28;20027;-68
2020/12/03 05:20:30;;;;;;;28.73;12.40;;;1.60;99.90;;;;;;5076704;28;20043;-68
2020/12/03 05:23:16;;;;;;;29.70;12.32;;;1.70;99.90;;;;;;5077193;28;20431;-68
2020/12/03 05:25:45;;;;;;;23.05;11.00;;;1.70;99.90;;;;;;5076411;28;20028;-68
2020/12/03 05:28:35;;;;;;;26.02;11.40;;;1.70;99.90;;;;;;5076260;28;20025;-68
2020/12/03 05:31:11;;;;;;;27.17;12.38;;;1.70;99.90;;;;;;5058605;28;20095;-68
2020/12/03 05:33:40;;;;;;;28.65;14.07;;;1.70;99.90;;;;;;5076917;28;20092;-68
2020/12/03 05:36:28;;;;;;;28.30;11.93;;;1.70;99.90;;;;;;5076261;28;20111;-68
2020/12/03 05:38:56;;;;;;;25.35;11.95;;;1.70;99.90;;;;;;5060533;28;20066;-68
2020/12/03 05:41:25;;;;;;;25.70;12.55;;;1.70;99.90;;;;;;5077048;28;20021;-68
2020/12/03 05:43:54;;;;;;;24.08;11.88;;;1.80;99.90;;;;;;5076534;28;20052;-68
2020/12/03 05:46:23;;;;;;;26.80;11.60;;;1.80;99.90;;;;;;5076343;28;20055;-68
2020/12/03 05:49:04;;;;;;;24.02;11.52;;;1.80;99.90;;;;;;5076539;28;20025;-68
2020/12/03 05:51:34;;;;;;;28.52;12.07;;;1.80;99.90;;;;;;5076200;28;20469;-68
2020/12/03 05:54:09;;;;;;;26.65;12.43;;;1.80;99.90;;;;;;5076647;28;20017;-68
2020/12/03 05:56:38;;;;;;;24.58;12.30;;;1.80;99.90;;;;;;5076357;28;20328;-68
2020/12/03 05:59:21;;;;;;;25.55;11.05;;;1.80;99.90;;;;;;5076652;28;20036;-68
2020/12/03 06:02:01;;;;;;;25.35;12.20;;;1.80;99.90;;;;;;5058295;28;20331;-68
2020/12/03 06:04:41;;;;;;;25.58;11.40;;;1.80;99.90;;;;;;5076026;28;20020;-68
2020/12/03 06:07:24;;;;;;;20.90;11.25;;;1.80;99.90;;;;;;5076023;28;20051;-68
2020/12/03 06:10:00;;;;;;;21.50;9.75;;;1.70;99.90;;;;;;5076035;28;20028;-68
2020/12/03 06:13:00;;;;;;;23.88;9.55;;;1.70;99.90;;;;;;5076547;28;20017;-68
2020/12/03 06:15:50;;;;;;;33.40;13.30;;;1.70;99.90;;;;;;5075845;28;20090;-68
2020/12/03 06:18:35;;;;;;;32.90;13.30;;;1.70;99.90;;;;;;5076512;28;20021;-67
2020/12/03 06:21:24;;;;;;;30.15;13.38;;;1.70;99.90;;;;;;5078028;28;20028;-66
2020/12/03 06:24:09;;;;;;;47.47;18.25;;;1.70;99.90;;;;;;5061850;28;20028;-68
2020/12/03 06:26:43;;;;;;;30.73;12.35;;;1.70;99.90;;;;;;5079950;28;20036;-68
2020/12/03 06:29:57;;;;;;;40.90;15.13;;;1.70;99.90;;;;;;5079365;28;20379;-68
2020/12/03 06:32:43;;;;;;;23.80;10.68;;;1.70;99.90;;;;;;5079456;28;20286;-68
2020/12/03 06:35:32;;;;;;;78.95;25.42;;;1.70;99.90;;;;;;5079843;28;20104;-67
2020/12/03 06:38:31;;;;;;;28.30;12.88;;;1.70;99.90;;;;;;5061711;28;20024;-68
2020/12/03 06:41:15;;;;;;;27.52;12.23;;;1.70;99.90;;;;;;5079632;28;20058;-69
2020/12/03 06:43:56;;;;;;;25.25;11.95;;;1.70;99.90;;;;;;5079236;28;20033;-69
2020/12/03 06:46:53;;;;;;;32.72;12.98;;;1.70;99.90;;;;;;5079131;28;20422;-68
2020/12/03 06:49:43;;;;;;;27.80;12.32;;;1.70;99.90;;;;;;5079451;28;20384;-69
2020/12/03 06:52:27;;;;;;;25.77;11.85;;;1.70;99.90;;;;;;5061275;28;20021;-69
2020/12/03 06:55:11;;;;;;;28.83;13.38;;;1.70;99.90;;;;;;5078998;28;20078;-70
2020/12/03 06:58:00;;;;;;;29.52;12.30;;;1.70;99.90;;;;;;5078969;28;20420;-69
2020/12/03 07:01:03;;;;;;;32.47;14.25;;;1.70;99.90;;;;;;5079249;28;20025;-69
2020/12/03 07:04:08;;;;;;;26.48;11.98;;;1.80;99.90;;;;;;4990612;28;20043;-76
2020/12/03 07:06:39;;;;;;;33.30;14.85;;;1.80;99.90;;;;;;5078859;28;20051;-71
2020/12/03 07:09:43;;;;;;;31.90;13.55;;;1.80;99.90;;;;;;5079334;28;20107;-70
2020/12/03 07:12:35;;;;;;;31.10;13.63;;;1.80;99.90;;;;;;5079154;28;20017;-71
2020/12/03 07:15:31;;;;;;;29.90;13.05;;;1.80;99.90;;;;;;5079246;28;20021;-71
2020/12/03 07:18:34;;;;;;;25.63;11.18;;;1.80;99.90;;;;;;5078624;28;20025;-72
2020/12/03 07:21:36;;;;;;;29.60;12.85;;;1.80;99.90;;;;;;5079008;28;20021;-71
2020/12/03 07:24:26;;;;;;;27.80;12.98;;;1.80;99.90;;;;;;5078808;28;20021;-71
2020/12/03 07:27:10;;;;;;;27.67;12.65;;;1.80;99.90;;;;;;5078425;28;20024;-72
2020/12/03 07:30:02;;;;;;;25.13;13.30;;;1.80;99.90;;;;;;5060691;28;20029;-68
2020/12/03 07:33:19;;;;;;;21.60;8.82;;;1.80;99.90;;;;;;5059686;28;20051;-67
2020/12/03 07:36:02;;;;;;;25.73;12.50;;;1.80;99.90;;;;;;5044265;28;20032;-68
2020/12/03 07:38:37;;;;;;;24.38;11.55;;;1.80;99.90;;;;;;5078781;28;20692;-67
2020/12/03 07:41:06;;;;;;;28.48;12.90;;;1.80;99.90;;;;;;5078761;28;20430;-68
2020/12/03 07:43:37;;;;;;;27.17;12.63;;;1.80;99.90;;;;;;5060430;28;20032;-66
2020/12/03 07:46:24;;;;;;;25.25;12.60;;;1.80;99.90;;;;;;5060491;28;20050;-67
2020/12/03 07:48:52;;;;;;;30.13;12.77;;;1.80;99.90;;;;;;5077984;28;20036;-66
2020/12/03 07:51:20;;;;;;;26.67;12.65;;;1.80;99.90;;;;;;5078211;28;20028;-67
2020/12/03 07:54:13;;;;;;;26.02;12.40;;;1.80;99.90;;;;;;5077892;28;20031;-67
2020/12/03 07:56:42;;;;;;;27.13;12.60;;;1.80;99.90;;;;;;5078620;28;20312;-67
2020/12/03 07:59:29;;;;;;;27.00;11.95;;;1.80;99.90;;;;;;5077634;28;20028;-68
2020/12/03 08:02:00;;;;;;;26.58;12.57;;;1.90;99.90;;;;;;5078378;28;20016;-67
2020/12/03 08:04:32;;;;;;;28.75;13.15;;;1.90;99.90;;;;;;5077631;28;20029;-67
2020/12/03 08:07:03;;;;;;;21.75;10.43;;;1.90;99.90;;;;;;5077748;28;20049;-67
2020/12/03 08:09:46;;;;;;;27.17;12.57;;;1.90;99.90;;;;;;5078437;28;20052;-67
2020/12/03 08:12:25;;;;;;;26.27;12.45;;;1.90;99.90;;;;;;5077545;28;20051;-66
2020/12/03 08:15:02;;;;;;;28.30;12.10;;;1.90;99.90;;;;;;5078075;28;20021;-67
2020/12/03 08:17:29;;;;;;;;;;;1.90;99.90;;;;;;5077845;28;20367;-66
2020/12/03 08:20:06;;;;;;;25.38;12.55;;;1.90;99.90;;;;;;5077878;28;19957;-67
2020/12/03 08:22:41;;;;;;;25.33;12.98;;;1.90;99.90;;;;;;5078079;28;20017;-67
2020/12/03 08:25:16;;;;;;;28.05;13.02;;;2.00;99.90;;;;;;5077264;28;20024;-67
2020/12/03 08:27:50;;;;;;;25.60;12.30;;;2.00;99.90;;;;;;5077788;28;20033;-67
2020/12/03 08:30:41;;;;;;;25.50;12.30;;;2.00;99.90;;;;;;5077104;28;20089;-67
2020/12/03 08:33:11;;;;;;;29.45;11.48;;;2.00;99.90;;;;;;5077182;28;20424;-67
2020/12/03 08:35:40;;;;;;;21.27;10.60;;;2.10;99.90;;;;;;5076988;28;20222;-67
2020/12/03 08:38:08;;;;;;;24.10;12.40;;;2.20;99.90;;;;;;5077666;28;20048;-67
2020/12/03 08:40:38;;;;;;;31.38;12.50;;;2.30;99.90;;;;;;5076987;28;20111;-67
2020/12/03 08:43:09;;;;;;;21.95;10.75;;;2.30;99.90;;;;;;5077113;28;20024;-65
2020/12/03 08:45:45;;;;;;;25.60;10.77;;;2.40;99.90;;;;;;5076498;28;20027;-65
2020/12/03 08:48:20;;;;;;;18.20;7.63;;;2.50;99.90;;;;;;5077040;28;20025;-65
2020/12/03 08:50:59;;;;;;;27.60;12.32;;;2.60;99.90;;;;;;5077053;28;20384;-65
2020/12/03 08:53:30;;;;;;;21.17;10.90;;;2.60;99.90;;;;;;5077030;28;20416;-65
2020/12/03 08:56:16;;;;;;;22.63;10.50;;;2.60;99.90;;;;;;5076813;28;20439;-65
2020/12/03 08:58:59;;;;;;;26.65;10.80;;;2.60;99.90;;;;;;5059059;28;20029;-65
2020/12/03 09:01:55;;;;;;;23.10;11.35;;;2.60;99.90;;;;;;5077212;28;20027;-65
2020/12/03 09:04:30;;;;;;;23.30;11.80;;;2.70;99.90;;;;;;5063791;28;20090;-65
2020/12/03 09:07:03;;;;;;;17.42;9.38;;;2.70;99.90;;;;;;5076411;28;20058;-65
2020/12/03 09:09:32;;;;;;;22.58;9.93;;;2.70;99.90;;;;;;5077234;28;20031;-65
2020/12/03 09:12:00;;;;;;;21.83;11.00;;;2.80;99.90;;;;;;5077097;28;20052;-65
2020/12/03 09:14:32;;;;;;;17.35;7.45;;;2.80;99.90;;;;;;5077279;28;20025;-65
2020/12/03 09:17:09;;;;;;;23.10;11.50;;;2.80;99.90;;;;;;5077260;28;20294;-65
2020/12/03 09:19:38;;;;;;;20.35;10.45;;;2.80;99.90;;;;;;5077103;28;20033;-65
2020/12/03 09:22:07;;;;;;;25.67;11.45;;;2.80;99.90;;;;;;5076414;28;20074;-65
2020/12/03 09:24:36;;;;;;;21.80;10.55;;;2.70;99.90;;;;;;5076634;28;20027;-65
2020/12/03 09:27:06;;;;;;;23.02;10.23;;;2.70;99.90;;;;;;5076354;28;20024;-65
2020/12/03 09:29:34;;;;;;;19.88;10.27;;;2.70;99.90;;;;;;5076356;28;20302;-65
2020/12/03 09:32:17;;;;;;;22.52;10.98;;;2.70;99.90;;;;;;5076851;28;20024;-65
2020/12/03 09:34:46;;;;;;;17.75;8.65;;;2.70;99.90;;;;;;5077061;28;20016;-66
2020/12/03 09:37:13;;;;;;;22.23;11.10;;;2.70;99.90;;;;;;5076245;28;20020;-63
2020/12/03 09:39:41;;;;;;;21.45;10.85;;;2.70;99.90;;;;;;5058693;28;20465;-64
2020/12/03 09:42:15;;;;;;;17.88;9.23;;;2.70;99.90;;;;;;5076239;28;20033;-65
2020/12/03 09:44:48;;;;;;;18.73;9.25;;;2.70;99.90;;;;;;5058461;28;20115;-64
2020/12/03 09:47:19;;;;;;;21.85;9.75;;;2.70;99.90;;;;;;5076184;28;20024;-64
2020/12/03 09:49:48;;;;;;;20.27;10.30;;;2.60;99.90;;;;;;5076819;28;20024;-64
2020/12/03 09:52:17;;;;;;;20.92;9.57;;;2.70;99.90;;;;;;5076146;28;20024;-64
2020/12/03 09:54:45;;;;;;;22.63;8.27;;;2.60;99.90;;;;;;5076174;28;20357;-64
2020/12/03 09:57:13;;;;;;;15.60;8.25;;;2.60;99.90;;;;;;5079810;28;20031;-64
2020/12/03 09:59:41;;;;;;;20.73;9.02;;;2.60;99.90;;;;;;5062533;28;20031;-65
2020/12/03 10:02:12;;;;;;;17.95;8.85;;;2.60;99.90;;;;;;5080271;28;20371;-65
2020/12/03 10:05:02;;;;;;;22.83;10.80;;;2.60;99.90;;;;;;5062303;28;20044;-65
2020/12/03 10:07:53;;;;;;;21.73;10.32;;;2.60;99.90;;;;;;5079963;28;20052;-65
2020/12/03 10:11:08;;;;;;;24.85;10.95;;;2.50;99.90;;;;;;5051898;28;20044;-65
2020/12/03 10:13:45;;;;;;;21.58;9.15;;;2.50;99.90;;;;;;5080393;28;20020;-65
2020/12/03 10:16:23;;;;;;;23.65;11.00;;;2.50;99.90;;;;;;5080207;28;20017;-65
2020/12/03 10:18:53;;;;;;;22.45;11.07;;;2.50;99.90;;;;;;5062153;28;20025;-65
2020/12/03 10:21:25;;;;;;;21.00;9.18;;;2.50;99.90;;;;;;5080168;28;20036;-67
2020/12/03 10:24:13;;;;;;;22.73;10.27;;;2.50;99.90;;;;;;5079707;28;20032;-67
2020/12/03 10:27:13;;;;;;;16.35;6.95;;;2.50;99.90;;;;;;5061789;28;20395;-67
2020/12/03 10:30:00;;;;;;;21.52;9.73;;;2.50;99.90;;;;;;5079987;28;20021;-67
2020/12/03 10:32:28;;;;;;;18.13;10.10;;;2.50;99.90;;;;;;5079521;28;20020;-65
2020/12/03 10:34:56;;;;;;;20.60;9.45;;;2.50;99.90;;;;;;5079470;28;20355;-65
2020/12/03 10:37:44;;;;;;;20.88;10.73;;;2.50;99.90;;;;;;5079868;28;20108;-65
2020/12/03 10:40:20;;;;;;;19.58;9.80;;;2.50;99.90;;;;;;5079340;28;20021;-65
2020/12/03 10:43:08;;;;;;;22.42;10.13;;;2.50;99.90;;;;;;5079257;28;20021;-65
2020/12/03 10:45:42;;;;;;;26.23;11.45;;;2.50;99.90;;;;;;5079061;28;20439;-65
2020/12/03 10:48:24;;;;;;;22.48;10.55;;;2.50;99.90;;;;;;5079385;28;20024;-65
2020/12/03 10:50:57;;;;;;;18.00;9.32;;;2.50;99.90;;;;;;5079552;28;20309;-65
2020/12/03 10:53:28;;;;;;;24.65;12.02;;;2.50;99.90;;;;;;5079635;28;20070;-65
2020/12/03 10:56:03;;;;;;;23.05;9.90;;;2.50;99.90;;;;;;5079181;28;20043;-65
2020/12/03 10:58:55;;;;;;;24.42;11.15;;;2.50;99.90;;;;;;5061303;28;20032;-65
2020/12/03 11:01:29;;;;;;;25.08;10.73;;;2.50;99.90;;;;;;5078973;28;20052;-65
2020/12/03 11:04:08;;;;;;;24.02;10.57;;;2.50;99.90;;;;;;5078908;28;20112;-65
2020/12/03 11:06:36;;;;;;;22.88;10.50;;;2.50;99.90;;;;;;5079487;28;20040;-65
2020/12/03 11:09:05;;;;;;;17.63;9.32;;;2.60;99.90;;;;;;5097606;28;20030;-65
2020/12/03 11:11:38;;;;;;;21.80;9.55;;;2.60;99.90;;;;;;5099046;28;20024;-65
2020/12/03 11:14:13;;;;;;;21.45;10.02;;;2.60;99.90;;;;;;5099204;28;20404;-65
2020/12/03 11:17:17;;;;;;;24.33;10.80;;;2.60;99.90;;;;;;5099005;28;20031;-65
2020/12/03 11:19:50;;;;;;;21.45;10.05;;;2.70;99.90;;;;;;5099559;28;20035;-65
2020/12/03 11:22:30;;;;;;;22.48;10.10;;;2.80;99.90;;;;;;5098818;28;20016;-65
2020/12/03 11:25:06;;;;;;;21.05;8.82;;;2.80;99.90;;;;;;5099358;28;20016;-65
2020/12/03 11:27:42;;;;;;;37.95;16.30;;;2.80;99.90;;;;;;5098656;28;20327;-65
2020/12/03 11:30:18;;;;;;;28.00;12.05;;;2.80;99.90;;;;;;5098699;28;20477;-68
2020/12/03 11:32:50;;;;;;;37.42;14.65;;;2.90;99.90;;;;;;5098824;28;20078;-65
2020/12/03 11:35:26;;;;;;;27.60;11.90;;;2.90;99.90;;;;;;5098437;28;20024;-64
2020/12/03 11:37:58;;;;;;;25.92;12.07;;;2.90;99.90;;;;;;5098630;28;20035;-65
2020/12/03 11:40:36;;;;;;;23.77;9.75;;;2.90;99.90;;;;;;5098450;28;20107;-64
2020/12/03 11:48:40;;;;;;;30.73;14.60;;;2.90;99.90;;;;;;5098278;28;20317;-66
2020/12/03 11:51:08;;;;;;;24.43;10.00;;;3.00;99.90;;;;;;5098071;28;20024;-64
2020/12/03 11:53:36;;;;;;;32.72;14.50;;;3.00;99.90;;;;;;5098940;28;20019;-64
2020/12/03 11:56:04;;;;;;;29.48;12.40;;;3.00;99.90;;;;;;5098741;28;20304;-64
2020/12/03 11:58:31;;;;;;;26.77;11.13;;;3.00;99.90;;;;;;5096990;28;20028;-65
2020/12/03 12:01:12;;;;;;;21.45;9.43;;;3.00;99.90;;;;;;5098146;28;20031;-65
2020/12/03 12:03:44;;;;;;;21.27;10.38;;;3.10;99.90;;;;;;5098257;28;20020;-65
2020/12/03 12:06:18;;;;;;;21.13;10.35;;;3.10;99.90;;;;;;5089960;28;20048;-65
2020/12/03 12:08:55;;;;;;;21.23;9.75;;;3.10;99.90;;;;;;5078182;28;20454;-65
2020/12/03 12:11:33;;;;;;;27.88;12.43;;;3.20;99.90;;;;;;5078429;28;20458;-65
2020/12/03 12:14:01;;;;;;;39.25;18.83;;;3.30;99.90;;;;;;5077612;28;20499;-65
2020/12/03 12:16:29;;;;;;;23.48;10.27;;;3.30;99.90;;;;;;5077414;28;20099;-65
2020/12/03 12:18:56;;;;;;;17.35;8.10;;;3.40;99.90;;;;;;5077206;28;20017;-65
2020/12/03 12:21:25;;;;;;;22.60;10.45;;;3.40;99.90;;;;;;5077582;28;20020;-65
2020/12/03 12:23:54;;;;;;;19.58;9.35;;;3.50;99.90;;;;;;5078104;28;20315;-65
2020/12/03 12:26:21;;;;;;;16.92;9.43;;;3.50;99.90;;;;;;5077793;28;20020;-65
2020/12/03 12:28:49;;;;;;;18.63;9.27;;;3.60;99.90;;;;;;5077703;28;20123;-65
2020/12/03 12:31:17;;;;;;;23.58;9.45;;;3.60;99.90;;;;;;5077200;28;20027;-65
2020/12/03 12:33:46;;;;;;;18.05;9.27;;;3.80;99.90;;;;;;5077903;28;20027;-65
2020/12/03 12:36:14;;;;;;;15.43;8.77;;;3.90;99.90;;;;;;5077058;28;20017;-67
2020/12/03 12:38:42;;;;;;;19.60;9.82;;;3.90;99.90;;;;;;5077176;28;20031;-68
2020/12/03 12:41:11;;;;;;;17.00;8.55;;;4.00;99.90;;;;;;5077864;28;20458;-68
2020/12/03 12:43:39;;;;;;;18.20;9.00;;;4.00;99.90;;;;;;5078032;28;20297;-68
2020/12/03 12:46:07;;;;;;;18.83;8.82;;;4.00;99.90;;;;;;5077515;28;20029;-68
2020/12/03 12:48:34;;;;;;;17.58;8.70;;;4.00;99.90;;;;;;5076852;28;20023;-68
2020/12/03 12:51:02;;;;;;;20.77;9.68;;;4.00;99.90;;;;;;5077089;28;20051;-68
2020/12/03 12:53:29;;;;;;;19.98;9.90;;;4.00;99.90;;;;;;5077541;28;20024;-65
2020/12/03 12:55:57;;;;;;;19.13;9.32;;;3.90;99.90;;;;;;5077080;28;20028;-66
2020/12/03 12:58:24;;;;;;;17.40;7.82;;;3.80;99.90;;;;;;5077339;28;20069;-65
2020/12/03 13:00:53;;;;;;;16.95;7.90;;;3.70;99.90;;;;;;5077305;28;20026;-65
2020/12/03 13:03:22;;;;;;;19.00;9.55;;;3.60;99.90;;;;;;5076852;28;20032;-65
2020/12/03 13:05:54;;;;;;;16.08;7.97;;;3.50;99.90;;;;;;5079008;28;20431;-65
2020/12/03 13:08:21;;;;;;;17.25;8.55;;;3.50;99.90;;;;;;5076575;28;20119;-65
2020/12/03 13:10:48;;;;;;;16.40;7.38;;;3.50;99.90;;;;;;5058919;28;20031;-65
2020/12/03 13:13:16;;;;;;;14.82;6.95;;;3.50;99.90;;;;;;5058776;28;20301;-65
2020/12/03 13:15:46;;;;;;;13.02;6.90;;;3.40;99.90;;;;;;5077145;28;20086;-65
2020/12/03 13:18:14;;;;;;;14.57;6.95;;;3.40;99.90;;;;;;5076459;28;20025;-64
2020/12/03 13:20:41;;;;;;;13.80;7.80;;;3.40;99.90;;;;;;5076542;28;20086;-66
2020/12/03 13:23:09;;;;;;;20.63;7.95;;;3.40;99.90;;;;;;5076492;28;20036;-65